Search for airport 
image banner adimage banner adimage banner ad
image banner ad

5CA7 - Agro-West

Located in Five Points, United States

ICAO - 5CA7, IATA -

Data provided by Airmate  

General information

Coordinates: N36°20'10" W120°14'51"
Elevation is 335 feet MSL.
Magnetic variation is 15° East
View others Airports in California

Operational data

Special qualification required
Current time UTC:
Current local time:
Weather at : KNLC - Lemoore Nas (Reeves Fld) ( 26 km )
METAR: KNLC 191156Z AUTO 11007KT 10SM CLR 04/M03 A3004 RMK AO2 SLP172 T00391028 10089 20033 58005
TAF: TAF KNLC 1907/2007 VRB06KT 9999 SKC QNH3000INS FM191900 15006KT 9999 SKC QNH2991INS BECMG 2002/2004 23006KT 9999 FEW250 QNH2992INS AUTOMATED SENSOR METWATCH 1907 TIL 1915 T03/1914Z T22/1923Z FS30173
View NOTAMs / SUP AIP / TFR affecting this airport [VIEW]
Communications frequencies: [VIEW]

Runways:

RWY identifierQFULength (ft)Width (ft)SurfaceLDA (ft)
16300040ASPH
34300040ASPH

Airport contact information

Address: Five Points United States

Satellite view of 5CA7